Time,TemperatureF,DewpointF,PressureIn,WindDirection,WindDirectionDegrees,WindSpeedMPH,WindSpeedGustMPH,Humidity,HourlyPrecipIn,Conditions,Clouds,dailyrainin,SolarRadiationWatts/m^2,SoftwareType,DateUTC
2014-01-05 00:00:00,18.8,11.6,30.26,WNW,284,0.0,0.0,73,0.00,,,0.00,0,Wunderground v.1.15,2014-01-05 05:00:00,
2014-01-05 00:05:00,18.5,11.3,30.25,WNW,284,0.0,1.0,73,0.00,,,0.00,0,Wunderground v.1.15,2014-01-05 05:05:00,
2014-01-05 00:15:00,17.9,11.0,30.25,WNW,284,0.0,1.0,74,0.00,,,0.00,0,Wunderground v.1.15,2014-01-05 05:15:00,
2014-01-05 00:20:00,17.7,11.1,30.26,WNW,284,0.0,0.0,75,0.00,,,0.00,0,Wunderground v.1.15,2014-01-05 05:20:00,
2014-01-05 00:25:00,17.4,10.8,30.25,WNW,284,0.0,0.0,75,0.00,,,0.00,0,Wunderground v.1.15,2014-01-05 05:25:00,
2014-01-05 00:35:00,17.1,10.8,30.26,WNW,284,0.0,0.0,76,0.00,,,0.00,0,Wunderground v.1.15,2014-01-05 05:35:00,
2014-01-05 00:45:00,16.2,10.3,30.26,WNW,284,0.0,0.0,77,0.00,,,0.00,0,Wunderground v.1.15,2014-01-05 05:45:00,
2014-01-05 00:50:00,15.9,10.0,30.26,WNW,284,0.0,0.0,77,0.00,,,0.00,0,Wunderground v.1.15,2014-01-05 05:50:00,
2014-01-05 01:00:00,15.5,10.1,30.26,WNW,284,0.0,0.0,79,0.00,,,0.00,0,Wunderground v.1.15,2014-01-05 06:00:00,
2014-01-05 01:10:00,15.4,10.6,30.26,WNW,284,0.0,0.0,81,0.00,,,0.00,0,Wunderground v.1.15,2014-01-05 06:10:00,
2014-01-05 01:15:00,15.5,10.7,30.26,WNW,284,0.0,1.0,81,0.00,,,0.00,0,Wunderground v.1.15,2014-01-05 06:15:00,
2014-01-05 01:20:00,15.5,10.7,30.26,WNW,283,0.0,0.0,81,0.00,,,0.00,0,Wunderground v.1.15,2014-01-05 06:20:00,
2014-01-05 01:30:00,15.2,10.4,30.26,WNW,284,0.0,0.0,81,0.00,,,0.00,0,Wunderground v.1.15,2014-01-05 06:30:00,
2014-01-05 01:40:00,14.8,10.3,30.26,WNW,284,0.0,0.0,82,0.00,,,0.00,0,Wunderground v.1.15,2014-01-05 06:40:00,
2014-01-05 01:50:00,14.4,9.9,30.27,WNW,283,0.0,0.0,82,0.00,,,0.00,0,Wunderground v.1.15,2014-01-05 06:50:00,
2014-01-05 02:00:00,13.9,9.4,30.27,WNW,283,0.0,0.0,82,0.00,,,0.00,0,Wunderground v.1.15,2014-01-05 07:00:00,
2014-01-05 02:10:00,13.9,9.7,30.26,WNW,284,0.0,1.0,83,0.00,,,0.00,0,Wunderground v.1.15,2014-01-05 07:10:00,
2014-01-05 02:20:00,13.9,10.0,30.27,SW,235,1.0,2.0,84,0.00,,,0.00,0,Wunderground v.1.15,2014-01-05 07:20:00,
2014-01-05 02:25:00,14.1,10.2,30.27,SW,235,1.0,2.0,84,0.00,,,0.00,0,Wunderground v.1.15,2014-01-05 07:25:00,
2014-01-05 02:35:00,13.8,9.6,30.27,SW,235,0.0,0.0,83,0.00,,,0.00,0,Wunderground v.1.15,2014-01-05 07:35:00,
2014-01-05 02:45:00,13.3,9.1,30.27,SW,235,0.0,0.0,83,0.00,,,0.00,0,Wunderground v.1.15,2014-01-05 07:45:00,
2014-01-05 02:50:00,12.9,8.7,30.27,SW,235,0.0,0.0,83,0.00,,,0.00,0,Wunderground v.1.15,2014-01-05 07:50:00,
2014-01-05 03:00:00,12.3,8.1,30.27,SW,235,0.0,0.0,83,0.00,,,0.00,0,Wunderground v.1.15,2014-01-05 08:00:00,
2014-01-05 03:10:00,11.8,7.9,30.27,SW,235,0.0,0.0,84,0.00,,,0.00,0,Wunderground v.1.15,2014-01-05 08:10:00,
2014-01-05 03:15:00,11.7,7.8,30.27,SW,235,0.0,0.0,84,0.00,,,0.00,0,Wunderground v.1.15,2014-01-05 08:15:00,
2014-01-05 03:25:00,11.7,8.1,30.27,SW,235,0.0,0.0,85,0.00,,,0.00,0,Wunderground v.1.15,2014-01-05 08:25:00,
2014-01-05 03:35:00,11.5,7.9,30.28,SW,235,0.0,0.0,85,0.00,,,0.00,0,Wunderground v.1.15,2014-01-05 08:35:00,
2014-01-05 03:50:00,11.3,7.9,30.27,SW,235,0.0,0.0,86,0.00,,,0.00,0,Wunderground v.1.15,2014-01-05 08:50:00,
2014-01-05 04:00:00,11.0,7.6,30.27,SW,235,0.0,1.0,86,0.00,,,0.00,0,Wunderground v.1.15,2014-01-05 09:00:00,
2014-01-05 04:10:00,10.8,7.4,30.26,SW,235,0.0,0.0,86,0.00,,,0.00,0,Wunderground v.1.15,2014-01-05 09:10:00,
2014-01-05 04:20:00,10.7,7.3,30.26,SW,235,0.0,0.0,86,0.00,,,0.00,0,Wunderground v.1.15,2014-01-05 09:20:00,
2014-01-05 04:25:00,10.5,7.1,30.25,SW,235,0.0,0.0,86,0.00,,,0.00,0,Wunderground v.1.15,2014-01-05 09:25:00,
2014-01-05 04:35:00,10.3,7.2,30.25,SW,235,0.0,0.0,87,0.00,,,0.00,0,Wunderground v.1.15,2014-01-05 09:35:00,
2014-01-05 04:45:00,10.1,7.0,30.25,SW,235,0.0,0.0,87,0.00,,,0.00,0,Wunderground v.1.15,2014-01-05 09:45:00,
2014-01-05 04:50:00,10.1,7.0,30.25,SW,235,0.0,0.0,87,0.00,,,0.00,0,Wunderground v.1.15,2014-01-05 09:50:00,
2014-01-05 05:00:00,10.2,7.4,30.25,SW,235,0.0,0.0,88,0.00,,,0.00,0,Wunderground v.1.15,2014-01-05 10:00:00,
2014-01-05 05:10:00,10.4,7.6,30.25,SW,235,0.0,0.0,88,0.00,,,0.00,0,Wunderground v.1.15,2014-01-05 10:10:00,
2014-01-05 05:20:00,10.5,7.6,30.25,SW,235,0.0,0.0,88,0.00,,,0.00,0,Wunderground v.1.15,2014-01-05 10:20:00,
2014-01-05 05:30:00,10.3,7.5,30.25,SW,235,0.0,0.0,88,0.00,,,0.00,0,Wunderground v.1.15,2014-01-05 10:30:00,
2014-01-05 05:40:00,10.1,7.3,30.25,SW,235,0.0,0.0,88,0.00,,,0.00,0,Wunderground v.1.15,2014-01-05 10:40:00,
2014-01-05 05:45:00,10.2,7.4,30.25,SW,235,0.0,0.0,88,0.00,,,0.00,0,Wunderground v.1.15,2014-01-05 10:45:00,
2014-01-05 05:55:00,10.3,7.7,30.25,SW,235,0.0,0.0,89,0.00,,,0.00,0,Wunderground v.1.15,2014-01-05 10:55:00,
2014-01-05 06:05:00,10.8,8.2,30.25,SW,235,0.0,1.0,89,0.00,,,0.00,0,Wunderground v.1.15,2014-01-05 11:05:00,
2014-01-05 06:15:00,11.0,8.4,30.25,SW,235,0.0,1.0,89,0.00,,,0.00,0,Wunderground v.1.15,2014-01-05 11:15:00,
2014-01-05 06:20:00,11.0,8.4,30.25,SW,235,0.0,0.0,89,0.00,,,0.00,0,Wunderground v.1.15,2014-01-05 11:20:00,
2014-01-05 06:30:00,10.8,8.2,30.25,SW,222,0.0,0.0,89,0.00,,,0.00,0,Wunderground v.1.15,2014-01-05 11:30:00,
2014-01-05 06:40:00,10.7,7.8,30.25,SW,223,0.0,0.0,88,0.00,,,0.00,0,Wunderground v.1.15,2014-01-05 11:40:00,
2014-01-05 06:50:00,10.4,7.6,30.25,SW,215,0.0,0.0,88,0.00,,,0.00,0,Wunderground v.1.15,2014-01-05 11:50:00,
2014-01-05 07:00:00,10.4,7.6,30.25,SW,215,0.0,0.0,88,0.00,,,0.00,0,Wunderground v.1.15,2014-01-05 12:00:00,
2014-01-05 07:10:00,10.6,8.0,30.25,SW,215,0.0,0.0,89,0.00,,,0.00,0,Wunderground v.1.15,2014-01-05 12:10:00,
2014-01-05 07:20:00,10.5,7.6,30.25,SW,215,0.0,0.0,88,0.00,,,0.00,0,Wunderground v.1.15,2014-01-05 12:20:00,
2014-01-05 07:30:00,10.6,8.0,30.25,SW,215,0.0,0.0,89,0.00,,,0.00,0,Wunderground v.1.15,2014-01-05 12:30:00,
2014-01-05 07:35:00,10.7,8.1,30.25,SW,215,0.0,0.0,89,0.00,,,0.00,5,Wunderground v.1.15,2014-01-05 12:35:00,
2014-01-05 07:45:00,10.9,8.3,30.25,SW,215,0.0,0.0,89,0.00,,,0.00,9,Wunderground v.1.15,2014-01-05 12:45:00,
2014-01-05 07:55:00,11.0,8.4,30.25,SW,215,0.0,0.0,89,0.00,,,0.00,16,Wunderground v.1.15,2014-01-05 12:55:00,
2014-01-05 08:00:00,11.1,8.5,30.25,SW,215,0.0,0.0,89,0.00,,,0.00,19,Wunderground v.1.15,2014-01-05 13:00:00,
2014-01-05 08:10:00,11.4,8.8,30.26,SW,215,0.0,0.0,89,0.00,,,0.00,25,Wunderground v.1.15,2014-01-05 13:10:00,
2014-01-05 08:20:00,11.9,9.3,30.25,SW,215,0.0,0.0,89,0.00,,,0.00,28,Wunderground v.1.15,2014-01-05 13:20:00,
2014-01-05 08:30:00,12.7,10.1,30.25,SW,215,0.0,0.0,89,0.00,,,0.00,32,Wunderground v.1.15,2014-01-05 13:30:00,
2014-01-05 08:40:00,13.4,10.8,30.25,SW,215,0.0,0.0,89,0.00,,,0.00,35,Wunderground v.1.15,2014-01-05 13:40:00,
2014-01-05 08:50:00,14.5,12.1,30.25,SW,215,0.0,0.0,90,0.00,,,0.00,40,Wunderground v.1.15,2014-01-05 13:50:00,
2014-01-05 09:00:00,15.8,13.1,30.24,SW,215,0.0,0.0,89,0.00,,,0.00,44,Wunderground v.1.15,2014-01-05 14:00:00,
2014-01-05 09:05:00,16.3,13.4,30.25,SW,215,0.0,0.0,88,0.00,,,0.00,47,Wunderground v.1.15,2014-01-05 14:05:00,
2014-01-05 09:15:00,16.9,13.7,30.24,SW,215,0.0,0.0,87,0.00,,,0.00,100,Wunderground v.1.15,2014-01-05 14:15:00,
2014-01-05 09:25:00,17.9,14.4,30.24,SW,215,0.0,0.0,86,0.00,,,0.00,250,Wunderground v.1.15,2014-01-05 14:25:00,
2014-01-05 09:30:00,18.8,15.0,30.24,NNW,343,0.0,1.0,85,0.00,,,0.00,260,Wunderground v.1.15,2014-01-05 14:30:00,
2014-01-05 09:40:00,20.3,15.7,30.23,ENE,61,1.0,1.0,82,0.00,,,0.00,132,Wunderground v.1.15,2014-01-05 14:40:00,
2014-01-05 09:50:00,21.8,16.6,30.24,ENE,77,1.0,1.0,80,0.00,,,0.00,132,Wunderground v.1.15,2014-01-05 14:50:00,
2014-01-05 10:00:00,22.9,16.8,30.24,ENE,77,0.0,1.0,77,0.00,,,0.00,165,Wunderground v.1.15,2014-01-05 15:00:00,
2014-01-05 10:05:00,23.3,17.2,30.24,SE,140,1.0,1.0,77,0.00,,,0.00,197,Wunderground v.1.15,2014-01-05 15:05:00,
2014-01-05 10:10:00,23.7,16.9,30.23,SE,133,1.0,1.0,75,0.00,,,0.00,218,Wunderground v.1.15,2014-01-05 15:10:00,
2014-01-05 10:20:00,24.5,17.4,30.23,North,351,0.0,1.0,74,0.00,,,0.00,193,Wunderground v.1.15,2014-01-05 15:20:00,
2014-01-05 10:30:00,25.4,17.9,30.23,North,349,1.0,1.0,73,0.00,,,0.00,95,Wunderground v.1.15,2014-01-05 15:30:00,
2014-01-05 10:35:00,25.6,17.8,30.23,NNW,343,1.0,1.0,72,0.00,,,0.00,88,Wunderground v.1.15,2014-01-05 15:35:00,
2014-01-05 10:45:00,25.8,17.7,30.22,NNE,14,1.0,1.0,71,0.00,,,0.00,116,Wunderground v.1.15,2014-01-05 15:45:00,
2014-01-05 10:55:00,26.4,18.6,30.21,NE,54,0.0,2.0,72,0.00,,,0.00,132,Wunderground v.1.15,2014-01-05 15:55:00,
2014-01-05 11:00:00,26.8,19.3,30.21,East,85,1.0,2.0,73,0.00,,,0.00,149,Wunderground v.1.15,2014-01-05 16:00:00,
2014-01-05 11:10:00,26.9,18.7,30.20,East,82,2.0,2.0,71,0.00,,,0.00,109,Wunderground v.1.15,2014-01-05 16:10:00,
2014-01-05 11:20:00,27.1,19.6,30.19,East,82,1.0,1.0,73,0.00,,,0.00,95,Wunderground v.1.15,2014-01-05 16:20:00,
2014-01-05 11:30:00,27.6,20.4,30.17,East,88,0.0,2.0,74,0.00,,,0.00,114,Wunderground v.1.15,2014-01-05 16:30:00,
2014-01-05 11:40:00,27.6,20.1,30.18,NNW,343,1.0,1.0,73,0.00,,,0.00,79,Wunderground v.1.15,2014-01-05 16:40:00,
2014-01-05 11:50:00,27.7,20.2,30.17,NNW,331,1.0,1.0,73,0.00,,,0.00,39,Wunderground v.1.15,2014-01-05 16:50:00,
2014-01-05 12:00:00,27.9,21.3,30.16,NNW,331,1.0,1.0,76,0.00,,,0.00,81,Wunderground v.1.15,2014-01-05 17:00:00,
2014-01-05 12:10:00,28.2,22.2,30.16,NNW,331,0.0,0.0,78,0.00,,,0.00,130,Wunderground v.1.15,2014-01-05 17:10:00,
2014-01-05 12:15:00,28.5,23.1,30.16,North,2,0.0,2.0,80,0.00,,,0.00,116,Wunderground v.1.15,2014-01-05 17:15:00,
2014-01-05 12:25:00,28.7,23.6,30.15,North,10,1.0,1.0,81,0.00,,,0.00,100,Wunderground v.1.15,2014-01-05 17:25:00,
2014-01-05 12:35:00,28.6,24.1,30.14,North,10,1.0,1.0,83,0.00,,,0.00,111,Wunderground v.1.15,2014-01-05 17:35:00,
2014-01-05 12:45:00,28.5,24.3,30.13,North,10,1.0,1.0,84,0.00,,,0.00,102,Wunderground v.1.15,2014-01-05 17:45:00,
2014-01-05 12:55:00,28.6,24.9,30.13,North,10,0.0,1.0,86,0.00,,,0.00,102,Wunderground v.1.15,2014-01-05 17:55:00,
2014-01-05 13:00:00,28.8,25.4,30.12,North,10,0.0,2.0,87,0.00,,,0.00,137,Wunderground v.1.15,2014-01-05 18:00:00,
2014-01-05 13:10:00,28.8,25.7,30.10,North,10,1.0,1.0,88,0.00,,,0.00,141,Wunderground v.1.15,2014-01-05 18:10:00,
2014-01-05 13:20:00,29.2,26.4,30.10,North,10,1.0,1.0,89,0.00,,,0.00,95,Wunderground v.1.15,2014-01-05 18:20:00,
2014-01-05 13:30:00,29.1,26.3,30.10,North,10,1.0,2.0,89,0.00,,,0.00,88,Wunderground v.1.15,2014-01-05 18:30:00,
2014-01-05 13:40:00,29.3,26.7,30.09,North,10,1.0,1.0,90,0.00,,,0.00,79,Wunderground v.1.15,2014-01-05 18:40:00,
2014-01-05 13:50:00,29.4,26.8,30.10,North,10,1.0,1.0,90,0.00,,,0.00,62,Wunderground v.1.15,2014-01-05 18:50:00,
2014-01-05 13:55:00,29.5,27.2,30.09,North,10,1.0,1.0,91,0.00,,,0.00,76,Wunderground v.1.15,2014-01-05 18:55:00,
2014-01-05 14:05:00,29.7,27.4,30.09,North,10,0.0,0.0,91,0.00,,,0.00,63,Wunderground v.1.15,2014-01-05 19:05:00,
2014-01-05 14:10:00,29.8,27.5,30.08,North,10,0.0,0.0,91,0.00,,,0.00,63,Wunderground v.1.15,2014-01-05 19:10:00,
2014-01-05 14:20:00,29.9,27.6,30.08,North,10,1.0,1.0,91,0.00,,,0.00,84,Wunderground v.1.15,2014-01-05 19:20:00,
2014-01-05 14:30:00,29.9,27.6,30.08,North,10,0.0,0.0,91,0.00,,,0.00,53,Wunderground v.1.15,2014-01-05 19:30:00,
2014-01-05 14:40:00,30.1,28.1,30.07,North,10,0.0,0.0,92,0.00,,,0.00,47,Wunderground v.1.15,2014-01-05 19:40:00,
2014-01-05 14:50:00,30.4,28.4,30.07,North,10,0.0,0.0,92,0.00,,,0.00,37,Wunderground v.1.15,2014-01-05 19:50:00,
2014-01-05 15:00:00,30.6,28.6,30.06,North,10,0.0,1.0,92,0.00,,,0.00,39,Wunderground v.1.15,2014-01-05 20:00:00,
2014-01-05 15:05:00,30.5,28.5,30.06,North,10,1.0,1.0,92,0.00,,,0.00,46,Wunderground v.1.15,2014-01-05 20:05:00,
2014-01-05 15:15:00,30.6,28.8,30.06,North,10,0.0,1.0,93,0.00,,,0.00,44,Wunderground v.1.15,2014-01-05 20:15:00,
2014-01-05 15:25:00,30.6,28.8,30.05,North,10,0.0,0.0,93,0.00,,,0.00,37,Wunderground v.1.15,2014-01-05 20:25:00,
2014-01-05 15:35:00,30.9,29.1,30.04,North,10,0.0,0.0,93,0.00,,,0.00,33,Wunderground v.1.15,2014-01-05 20:35:00,
2014-01-05 15:45:00,30.9,29.1,30.04,North,10,0.0,0.0,93,0.00,,,0.00,30,Wunderground v.1.15,2014-01-05 20:45:00,
2014-01-05 15:55:00,30.7,28.9,30.04,North,10,0.0,0.0,93,0.00,,,0.00,12,Wunderground v.1.15,2014-01-05 20:55:00,
2014-01-05 16:00:00,30.6,28.8,30.03,North,10,0.0,0.0,93,0.00,,,0.00,14,Wunderground v.1.15,2014-01-05 21:00:00,
2014-01-05 16:10:00,30.7,28.9,30.02,North,10,0.0,0.0,93,0.00,,,0.00,9,Wunderground v.1.15,2014-01-05 21:10:00,
2014-01-05 16:20:00,30.7,28.9,30.02,North,10,0.0,0.0,93,0.00,,,0.00,5,Wunderground v.1.15,2014-01-05 21:20:00,
2014-01-05 16:25:00,30.6,28.8,30.02,North,10,0.0,0.0,93,0.00,,,0.00,0,Wunderground v.1.15,2014-01-05 21:25:00,
2014-01-05 16:35:00,30.6,28.8,30.01,North,10,0.0,0.0,93,0.00,,,0.00,0,Wunderground v.1.15,2014-01-05 21:35:00,
2014-01-05 16:45:00,30.6,29.1,30.00,North,10,0.0,0.0,94,0.00,,,0.00,0,Wunderground v.1.15,2014-01-05 21:45:00,
2014-01-05 16:50:00,30.6,29.1,30.00,North,10,0.0,0.0,94,0.00,,,0.00,0,Wunderground v.1.15,2014-01-05 21:50:00,
2014-01-05 17:00:00,30.6,29.1,29.99,North,10,0.0,0.0,94,0.00,,,0.00,0,Wunderground v.1.15,2014-01-05 22:00:00,
2014-01-05 17:10:00,30.6,29.1,29.99,North,10,0.0,0.0,94,0.00,,,0.00,0,Wunderground v.1.15,2014-01-05 22:10:00,
2014-01-05 17:20:00,30.6,29.1,29.98,North,10,0.0,0.0,94,0.00,,,0.00,0,Wunderground v.1.15,2014-01-05 22:20:00,
2014-01-05 17:30:00,30.6,29.1,29.96,North,10,0.0,0.0,94,0.00,,,0.00,0,Wunderground v.1.15,2014-01-05 22:30:00,
2014-01-05 17:40:00,30.6,29.1,29.97,North,10,0.0,0.0,94,0.00,,,0.00,0,Wunderground v.1.15,2014-01-05 22:40:00,
2014-01-05 17:45:00,30.6,29.1,29.96,North,10,0.0,0.0,94,0.00,,,0.00,0,Wunderground v.1.15,2014-01-05 22:45:00,
2014-01-05 17:55:00,30.6,29.1,29.95,North,10,0.0,0.0,94,0.00,,,0.00,0,Wunderground v.1.15,2014-01-05 22:55:00,
2014-01-05 18:05:00,30.7,29.4,29.96,North,10,0.0,0.0,95,0.00,,,0.00,0,Wunderground v.1.15,2014-01-05 23:05:00,
2014-01-05 18:15:00,30.8,29.5,29.95,North,10,0.0,0.0,95,0.00,,,0.00,0,Wunderground v.1.15,2014-01-05 23:15:00,
2014-01-05 18:25:00,31.0,29.7,29.94,North,10,0.0,0.0,95,0.00,,,0.00,0,Wunderground v.1.15,2014-01-05 23:25:00,
2014-01-05 18:35:00,30.9,29.6,29.93,North,10,0.0,0.0,95,0.00,,,0.00,0,Wunderground v.1.15,2014-01-05 23:35:00,
2014-01-05 18:45:00,30.9,29.6,29.92,North,10,0.0,0.0,95,0.00,,,0.00,0,Wunderground v.1.15,2014-01-05 23:45:00,
2014-01-05 18:55:00,31.0,29.7,29.92,North,10,0.0,0.0,95,0.00,,,0.00,0,Wunderground v.1.15,2014-01-05 23:55:00,
2014-01-05 19:00:00,30.9,29.6,29.92,North,10,0.0,0.0,95,0.00,,,0.00,0,Wunderground v.1.15,2014-01-06 00:00:00,
2014-01-05 19:10:00,30.9,29.6,29.92,North,10,0.0,0.0,95,0.00,,,0.00,0,Wunderground v.1.15,2014-01-06 00:10:00,
2014-01-05 19:20:00,30.8,29.5,29.91,North,10,0.0,0.0,95,0.00,,,0.00,0,Wunderground v.1.15,2014-01-06 00:20:00,
2014-01-05 19:25:00,30.8,29.5,29.91,North,10,0.0,0.0,95,0.00,,,0.00,0,Wunderground v.1.15,2014-01-06 00:25:00,
2014-01-05 19:35:00,30.8,29.5,29.90,North,10,0.0,0.0,95,0.00,,,0.00,0,Wunderground v.1.15,2014-01-06 00:35:00,
2014-01-05 19:45:00,31.1,29.8,29.89,North,10,0.0,0.0,95,0.00,,,0.00,0,Wunderground v.1.15,2014-01-06 00:45:00,
2014-01-05 19:50:00,31.2,29.9,29.89,North,10,0.0,0.0,95,0.00,,,0.00,0,Wunderground v.1.15,2014-01-06 00:50:00,
2014-01-05 20:00:00,31.3,30.0,29.87,North,10,0.0,0.0,95,0.00,,,0.00,0,Wunderground v.1.15,2014-01-06 01:00:00,
2014-01-05 20:10:00,31.4,30.1,29.87,North,10,0.0,0.0,95,0.00,,,0.00,0,Wunderground v.1.15,2014-01-06 01:10:00,
2014-01-05 20:15:00,31.5,30.2,29.87,North,10,0.0,0.0,95,0.00,,,0.00,0,Wunderground v.1.15,2014-01-06 01:15:00,
2014-01-05 20:25:00,31.5,30.2,29.87,North,10,0.0,0.0,95,0.00,,,0.00,0,Wunderground v.1.15,2014-01-06 01:25:00,
2014-01-05 20:35:00,31.6,30.3,29.87,North,10,0.0,0.0,95,0.00,,,0.00,0,Wunderground v.1.15,2014-01-06 01:35:00,
2014-01-05 20:40:00,31.6,30.3,29.86,North,10,0.0,0.0,95,0.00,,,0.00,0,Wunderground v.1.15,2014-01-06 01:40:00,
2014-01-05 20:50:00,31.7,30.4,29.84,North,10,0.0,0.0,95,0.00,,,0.00,0,Wunderground v.1.15,2014-01-06 01:50:00,
2014-01-05 21:00:00,31.7,30.4,29.83,North,10,0.0,0.0,95,0.00,,,0.00,0,Wunderground v.1.15,2014-01-06 02:00:00,
2014-01-05 21:05:00,31.8,30.5,29.82,North,10,0.0,0.0,95,0.00,,,0.00,0,Wunderground v.1.15,2014-01-06 02:05:00,
2014-01-05 21:15:00,31.8,30.5,29.82,North,10,0.0,0.0,95,0.00,,,0.00,0,Wunderground v.1.15,2014-01-06 02:15:00,
2014-01-05 21:25:00,31.8,30.8,29.81,North,10,0.0,0.0,96,0.00,,,0.00,0,Wunderground v.1.15,2014-01-06 02:25:00,
2014-01-05 21:30:00,31.8,30.5,29.80,North,10,0.0,0.0,95,0.00,,,0.00,0,Wunderground v.1.15,2014-01-06 02:30:00,
2014-01-05 21:40:00,31.9,30.6,29.80,North,10,0.0,0.0,95,0.00,,,0.00,0,Wunderground v.1.15,2014-01-06 02:40:00,
2014-01-05 21:50:00,31.9,30.6,29.79,North,10,0.0,0.0,95,0.00,,,0.00,0,Wunderground v.1.15,2014-01-06 02:50:00,
2014-01-05 22:00:00,31.9,30.9,29.78,North,10,0.0,0.0,96,0.00,,,0.00,0,Wunderground v.1.15,2014-01-06 03:00:00,
2014-01-05 22:10:00,32.0,31.0,29.77,North,10,0.0,0.0,96,0.00,,,0.00,0,Wunderground v.1.15,2014-01-06 03:10:00,
2014-01-05 22:20:00,32.0,31.0,29.76,North,10,0.0,0.0,96,0.00,,,0.00,0,Wunderground v.1.15,2014-01-06 03:20:00,
2014-01-05 22:30:00,32.0,31.0,29.75,North,10,0.0,0.0,96,0.00,,,0.00,0,Wunderground v.1.15,2014-01-06 03:30:00,
2014-01-05 22:40:00,32.1,31.1,29.73,North,10,0.0,0.0,96,0.00,,,0.00,0,Wunderground v.1.15,2014-01-06 03:40:00,
2014-01-05 22:50:00,32.2,31.2,29.72,North,10,0.0,0.0,96,0.00,,,0.00,0,Wunderground v.1.15,2014-01-06 03:50:00,
2014-01-05 23:00:00,32.6,31.6,29.71,North,10,0.0,0.0,96,0.00,,,0.00,0,Wunderground v.1.15,2014-01-06 04:00:00,
2014-01-05 23:10:00,33.5,32.5,29.69,North,10,0.0,0.0,96,0.00,,,0.00,0,Wunderground v.1.15,2014-01-06 04:10:00,
2014-01-05 23:20:00,35.3,34.5,29.67,North,10,0.0,0.0,97,0.00,,,0.00,0,Wunderground v.1.15,2014-01-06 04:20:00,
2014-01-05 23:30:00,36.5,35.7,29.65,North,10,0.0,0.0,97,0.00,,,0.00,0,Wunderground v.1.15,2014-01-06 04:30:00,
2014-01-05 23:40:00,37.5,36.7,29.64,SSW,195,1.0,2.0,97,0.00,,,0.00,0,Wunderground v.1.15,2014-01-06 04:40:00,
2014-01-05 23:50:00,38.5,37.7,29.64,SW,235,4.0,4.0,97,0.00,,,0.00,0,Wunderground v.1.15,2014-01-06 04:50:00,